Terminal Aerodrome Forecast
Issued by NWS Austin/San Antonio, TX

Home | Current Version | Previous Version | Text Only | Print | Product List | Glossary On
Versions: 1 2 3 4 5 6 7 8 9 10 11 12 13 14 15 16 17 18 19 20 21 22 23
000
FTUS44 KEWX 281133
TAFSAT
TAF
KSAT 281133Z 2812/2918 14008KT P6SM OVC009
     FM281500 14012KT P6SM OVC025
     FM281900 14015KT P6SM BKN040
     FM290500 15010KT P6SM OVC015
     FM290800 15010KT 4SM BR OVC008
     FM291500 15012KT P6SM OVC015=

USA.gov is the U.S. government's official web portal to all federal, state and local government web resources and services.